Timbo, Brazil
Current Conditions -  °F | °C
As of 7:00 AM on Saturday 01 Nov 2014 (Local Time) from SBNF Reporting Station
Haze Haze  
Wind Chill: 72°   Ceiling: Unl
Heat Index: 72°   Visibility: 3mi
Dew Point: 68°   Wind: 5mph
Humidity: 88%   Direction: 270°W
Pressure: 29.91"   Gusts: NA
Location:  26.82°S, 49.27°W
Report Text: SBNF 010900Z 27004KT 5000 BR FEW003 SCT025 22/20 Q1013
Loading
Personal Weather Stations






























Interactive Weather Map
Tropical Storm Tracking
New forecast layout! Learn more

10-Day Weather Forecast

Advertisements
Track Severe Weather on mobile